.
WxDataArchive / Data Records for 2015-04-25
2015-04-24 April 2015 2015-04-26

Data Records for Saturday, 25 April 2015

Time	Temp	Chill	HIndex	Humid	Dewpt	 Wind 	HiWind	WindDir	Rain 	Barom
-----	----	-----	------	-----	-----	------	------	-------	-----	-----
00:00	51.6	51.6	51.6	46	31.5	1	6	90	0.00	29.904 
00:05	51.4	51.4	51.4	47	31.9	1	6	112	0.00	29.904 
00:10	51.3	51.3	51.3	47	31.8	1	4	112	0.00	29.904 
00:15	51.1	51.1	51.1	48	32.1	1	7	112	0.00	29.904 
00:20	51.0	51.0	51.0	48	32.0	1	7	112	0.00	29.904 
00:25	50.8	50.8	50.8	48	31.8	1	5	90	0.00	29.904 
00:30	50.7	50.7	50.7	49	32.2	1	5	112	0.00	29.917 
00:35	50.5	50.5	50.5	50	32.6	1	5	90	0.00	29.917 
00:40	50.4	50.4	50.4	50	32.5	1	5	90	0.00	29.917 
00:45	50.4	50.4	50.4	50	32.5	1	3	112	0.00	29.914 
00:50	50.2	50.2	50.2	51	32.8	0	1	112	0.00	29.914 
00:55	50.1	50.1	50.1	51	32.7	0	2	112	0.00	29.914 
01:00	50.1	50.1	50.1	52	33.2	0	2	112	0.00	29.921 
01:05	49.9	49.9	49.9	52	33.0	1	4	112	0.00	29.921 
01:10	49.8	49.8	49.8	53	33.4	0	3	112	0.00	29.921 
01:15	49.8	49.8	49.8	54	33.8	1	4	112	0.00	29.917 
01:20	49.6	49.6	49.6	53	33.2	1	4	135	0.00	29.917 
01:25	49.6	49.6	49.6	53	33.2	0	2	68	0.00	29.917 
01:30	49.5	49.5	49.5	54	33.6	1	3	68	0.00	29.916 
01:35	49.5	49.5	49.5	55	34.0	0	3	45	0.00	29.916 
01:40	49.4	49.4	49.4	55	33.9	2	4	90	0.00	29.916 
01:45	49.2	49.2	49.2	55	33.7	2	11	90	0.00	29.897 
01:50	49.2	49.2	49.2	56	34.2	2	7	112	0.00	29.897 
01:55	49.1	49.1	49.1	56	34.1	2	4	112	0.00	29.897 
02:00	48.9	48.9	48.9	56	33.9	2	4	112	0.00	29.895 
02:05	48.8	48.8	48.8	57	34.3	2	5	90	0.00	29.895 
02:10	48.8	48.8	48.8	57	34.3	2	7	90	0.00	29.895 
02:15	48.6	47.3	48.6	57	34.1	4	8	112	0.00	29.881 
02:20	48.6	48.6	48.6	58	34.5	1	5	112	0.00	29.881 
02:25	48.6	48.6	48.6	57	34.1	2	9	112	0.00	29.881 
02:30	48.6	48.6	48.6	58	34.5	3	7	112	0.00	29.889 
02:35	48.6	48.6	48.6	58	34.5	2	10	90	0.00	29.889 
02:40	48.5	48.5	48.5	57	34.0	1	7	112	0.00	29.889 
02:45	48.5	48.5	48.5	58	34.4	1	5	112	0.00	29.900 
02:50	48.5	48.5	48.5	58	34.4	3	6	112	0.00	29.900 
02:55	48.3	48.3	48.3	58	34.2	1	4	112	0.00	29.900 
03:00	48.3	48.3	48.3	59	34.6	1	5	68	0.00	29.891 
03:05	48.2	48.2	48.2	59	34.6	2	5	90	0.00	29.891 
03:10	48.2	48.2	48.2	59	34.6	3	6	112	0.00	29.891 
03:15	48.0	48.0	48.0	59	34.4	3	7	90	0.00	29.874 
03:20	48.0	48.0	48.0	59	34.4	3	6	112	0.00	29.874 
03:25	47.9	47.9	47.9	60	34.7	2	6	90	0.00	29.874 
03:30	47.9	47.9	47.9	64	36.3	1	5	90	0.00	29.874 
03:35	47.4	47.4	47.4	67	37.0	1	5	90	0.00	29.874 
03:40	46.8	46.8	46.8	69	37.2	1	5	90	0.00	29.874 
03:45	46.5	46.5	46.5	70	37.3	1	3	90	0.00	29.879 
03:50	46.4	46.4	46.4	69	36.8	2	6	90	0.00	29.879 
03:55	46.2	46.2	46.2	69	36.6	2	5	112	0.00	29.879 
04:00	46.1	46.1	46.1	69	36.5	2	6	90	0.00	29.876 
04:05	46.0	46.0	46.0	73	37.8	2	5	90	0.01	29.876 
04:10	45.5	45.5	45.5	75	38.0	3	8	90	0.01	29.876 
04:15	45.1	45.1	45.1	77	38.3	1	6	90	0.00	29.873 
04:20	44.6	44.6	44.6	80	38.8	3	7	90	0.00	29.873 
04:25	44.3	44.3	44.3	81	38.8	1	6	90	0.00	29.873 
04:30	43.8	43.8	43.8	83	39.0	2	6	112	0.00	29.877 
04:35	43.5	43.5	43.5	84	39.0	3	7	112	0.00	29.877 
04:40	43.2	43.2	43.2	84	38.7	3	11	90	0.00	29.877 
04:45	43.1	43.1	43.1	84	38.6	2	6	112	0.00	29.861 
04:50	42.8	42.8	42.8	83	38.0	3	10	112	0.00	29.861 
04:55	42.5	40.2	42.5	82	37.4	4	12	112	0.00	29.861 
05:00	42.3	42.3	42.3	82	37.2	3	11	90	0.00	29.846 
05:05	42.1	39.7	42.1	81	36.7	4	9	112	0.00	29.846 
05:10	41.9	41.9	41.9	81	36.5	3	9	90	0.00	29.846 
05:15	41.9	38.7	41.9	80	36.2	5	12	112	0.00	29.840 
05:20	41.9	38.7	41.9	80	36.2	5	11	90	0.00	29.840 
05:25	42.1	42.1	42.1	81	36.7	2	9	90	0.00	29.840 
05:30	42.1	42.1	42.1	81	36.7	3	6	90	0.00	29.831 
05:35	42.1	42.1	42.1	81	36.7	3	9	90	0.00	29.831 
05:40	41.9	41.9	41.9	81	36.5	2	6	90	0.00	29.831 
05:45	41.9	41.9	41.9	81	36.5	3	7	90	0.00	29.846 
05:50	41.8	38.6	41.8	80	36.1	5	15	90	0.00	29.846 
05:55	41.6	39.2	41.6	81	36.2	4	10	90	0.00	29.846 
06:00	41.6	39.2	41.6	81	36.2	4	9	90	0.00	29.829 
06:05	41.3	38.8	41.3	82	36.2	4	11	90	0.00	29.829 
06:10	41.3	41.3	41.3	83	36.5	2	7	90	0.00	29.829 
06:15	41.2	41.2	41.2	83	36.4	3	7	90	0.00	29.832 
06:20	41.2	38.7	41.2	83	36.4	4	8	90	0.00	29.832 
06:25	41.1	37.8	41.1	83	36.3	5	11	90	0.00	29.832 
06:30	40.9	38.4	40.9	83	36.1	4	10	90	0.00	29.817 
06:35	40.8	37.4	40.8	84	36.3	5	11	112	0.00	29.817 
06:40	40.8	38.2	40.8	84	36.3	4	11	90	0.00	29.817 
06:45	40.6	38.0	40.6	84	36.2	4	10	90	0.00	29.826 
06:50	40.6	40.6	40.6	85	36.4	2	6	112	0.00	29.826 
06:55	40.5	40.5	40.5	85	36.4	3	7	112	0.00	29.826 
07:00	40.6	40.6	40.6	85	36.4	2	9	90	0.00	29.846 
07:05	40.6	40.6	40.6	86	36.7	2	5	90	0.00	29.846 
07:10	40.8	40.8	40.8	86	36.9	3	7	112	0.00	29.846 
07:15	40.9	38.4	40.9	86	37.0	4	10	90	0.00	29.860 
07:20	41.1	38.6	41.1	86	37.2	4	10	90	0.00	29.860 
07:25	41.1	38.6	41.1	86	37.2	4	9	90	0.00	29.860 
07:30	41.2	38.7	41.2	85	37.0	4	14	112	0.00	29.850 
07:35	41.3	41.3	41.3	86	37.4	3	7	90	0.00	29.850 
07:40	41.3	38.8	41.3	85	37.1	4	9	90	0.00	29.850 
07:45	41.5	41.5	41.5	85	37.3	3	9	112	0.00	29.851 
07:50	41.5	41.5	41.5	85	37.3	3	11	112	0.00	29.851 
07:55	41.6	39.2	41.6	85	37.4	4	11	90	0.00	29.851 
08:00	41.6	39.2	41.6	85	37.4	4	12	90	0.00	29.847 
08:05	41.8	39.4	41.8	85	37.6	4	9	90	0.00	29.847 
08:10	41.8	41.8	41.8	85	37.6	3	9	90	0.00	29.847 
08:15	41.9	39.5	41.9	84	37.4	4	11	90	0.00	29.848 
08:20	41.9	41.9	41.9	84	37.4	3	11	90	0.00	29.848 
08:25	41.9	39.5	41.9	84	37.4	4	10	112	0.00	29.848 
08:30	41.9	41.9	41.9	84	37.4	3	8	90	0.00	29.850 
08:35	42.1	39.7	42.1	84	37.6	4	10	90	0.00	29.850 
08:40	42.2	42.2	42.2	84	37.7	3	11	90	0.00	29.850 
08:45	42.2	39.1	42.2	84	37.7	5	12	112	0.00	29.844 
08:50	42.2	42.2	42.2	83	37.4	3	9	90	0.00	29.844 
08:55	42.2	42.2	42.2	83	37.4	3	9	90	0.00	29.844 
09:00	42.2	42.2	42.2	83	37.4	3	9	90	0.00	29.842 
09:05	42.3	40.0	42.3	83	37.5	4	11	90	0.00	29.842 
09:10	42.3	40.0	42.3	83	37.5	4	9	90	0.00	29.842 
09:15	42.3	40.0	42.3	82	37.2	4	12	90	0.00	29.835 
09:20	42.3	39.2	42.3	83	37.5	5	12	90	0.00	29.835 
09:25	42.3	40.0	42.3	83	37.5	4	11	112	0.00	29.835 
09:30	42.3	42.3	42.3	84	37.8	3	7	90	0.00	29.836 
09:35	42.3	42.3	42.3	84	37.8	3	10	90	0.00	29.836 
09:40	42.3	42.3	42.3	85	38.1	3	6	90	0.00	29.836 
09:45	42.2	39.9	42.2	85	38.0	4	7	90	0.01	29.836 
09:50	42.2	39.9	42.2	86	38.3	4	9	112	0.00	29.836 
09:55	42.2	39.9	42.2	86	38.3	4	9	90	0.00	29.836 
10:00	42.2	42.2	42.2	87	38.6	3	7	90	0.00	29.821 
10:05	42.2	39.9	42.2	88	38.9	4	7	90	0.01	29.821 
10:10	42.2	39.9	42.2	88	38.9	4	7	90	0.00	29.821 
10:15	42.2	39.9	42.2	88	38.9	4	6	90	0.00	29.812 
10:20	42.3	42.3	42.3	88	39.0	3	9	112	0.00	29.812 
10:25	42.3	39.2	42.3	88	39.0	5	9	90	0.00	29.812 
10:30	42.5	40.2	42.5	88	39.2	4	10	112	0.00	29.798 
10:35	42.6	40.3	42.6	87	39.0	4	7	90	0.00	29.798 
10:40	42.6	39.5	42.6	86	38.7	5	9	90	0.00	29.798 
10:45	42.6	39.5	42.6	86	38.7	5	10	112	0.00	29.801 
10:50	42.8	40.6	42.8	85	38.6	4	8	112	0.00	29.801 
10:55	42.9	39.9	42.9	85	38.7	5	9	90	0.00	29.801 
11:00	43.1	40.1	43.1	84	38.6	5	10	112	0.00	29.807 
11:05	43.3	41.1	43.3	84	38.8	4	9	90	0.00	29.807 
11:10	43.6	40.7	43.6	83	38.8	5	12	112	0.00	29.807 
11:15	43.6	41.5	43.6	84	39.1	4	10	90	0.00	29.788 
11:20	43.6	40.7	43.6	84	39.1	5	11	90	0.00	29.788 
11:25	43.6	40.0	43.6	83	38.8	6	10	90	0.00	29.788 
11:30	44.1	41.3	44.1	84	39.6	5	9	90	0.00	29.799 
11:35	44.5	42.5	44.5	83	39.7	4	9	90	0.00	29.799 
11:40	44.8	42.1	44.8	82	39.6	5	12	112	0.00	29.799 
11:45	44.8	41.5	44.8	81	39.3	6	11	112	0.00	29.788 
11:50	44.8	42.1	44.8	81	39.3	5	10	112	0.00	29.788 
11:55	44.9	42.2	44.9	81	39.4	5	12	90	0.00	29.788 
12:00	44.9	41.6	44.9	80	39.1	6	12	112	0.00	29.770 
12:05	45.2	42.6	45.2	81	39.7	5	12	90	0.00	29.770 
12:10	45.7	42.5	45.7	80	39.9	6	14	90	0.00	29.770 
12:15	45.8	43.3	45.8	80	40.0	5	10	90	0.00	29.771 
12:20	46.0	42.9	46.0	80	40.2	6	13	112	0.00	29.771 
12:25	46.1	43.0	46.1	78	39.6	6	13	112	0.00	29.771 
12:30	46.1	42.5	46.1	77	39.3	7	13	90	0.00	29.773 
12:35	46.2	43.1	46.2	77	39.4	6	14	112	0.00	29.773 
12:40	46.4	44.0	46.4	76	39.3	5	12	90	0.00	29.773 
12:45	46.2	43.1	46.2	77	39.4	6	14	112	0.00	29.773 
12:50	46.1	43.0	46.1	76	39.0	6	10	112	0.00	29.773 
12:55	46.4	44.7	46.4	77	39.6	4	9	112	0.00	29.773 
13:00	46.4	43.4	46.4	77	39.6	6	11	90	0.00	29.769 
13:05	46.2	43.8	46.2	80	40.4	5	14	112	0.01	29.769 
13:10	46.1	44.4	46.1	81	40.6	4	13	90	0.00	29.769 
13:15	46.0	43.5	46.0	81	40.5	5	11	90	0.00	29.760 
13:20	46.0	46.0	46.0	82	40.8	3	7	112	0.00	29.760 
13:25	45.8	44.0	45.8	81	40.3	4	11	90	0.00	29.760 
13:30	45.8	43.3	45.8	80	40.0	5	9	90	0.00	29.772 
13:35	45.8	44.0	45.8	81	40.3	4	7	90	0.00	29.772 
13:40	45.7	43.2	45.7	80	39.9	5	13	112	0.00	29.772 
13:45	45.7	43.9	45.7	81	40.2	4	9	90	0.00	29.770 
13:50	45.5	42.9	45.5	81	40.0	5	12	90	0.00	29.770 
13:55	45.5	43.7	45.5	82	40.3	4	10	112	0.00	29.770 
14:00	45.5	43.7	45.5	82	40.3	4	11	90	0.01	29.760 
14:05	45.4	45.4	45.4	84	40.9	3	7	90	0.00	29.760 
14:10	45.4	45.4	45.4	85	41.2	3	8	90	0.01	29.760 
14:15	45.2	43.3	45.2	85	41.0	4	9	112	0.00	29.757 
14:20	45.1	45.1	45.1	85	40.9	3	9	90	0.00	29.757 
14:25	44.9	44.9	44.9	86	41.0	3	7	112	0.01	29.757 
14:30	44.9	44.9	44.9	87	41.3	3	9	90	0.01	29.743 
14:35	44.8	42.1	44.8	86	40.9	5	10	112	0.00	29.743 
14:40	44.6	42.6	44.6	86	40.7	4	9	90	0.01	29.743 
14:45	44.8	42.9	44.8	87	41.2	4	6	112	0.01	29.737 
14:50	44.8	44.8	44.8	88	41.5	3	9	112	0.00	29.737 
14:55	44.9	43.0	44.9	88	41.6	4	8	112	0.01	29.737 
15:00	45.1	43.2	45.1	88	41.8	4	7	90	0.01	29.729 
15:05	45.2	43.3	45.2	88	41.9	4	10	112	0.00	29.729 
15:10	45.2	43.3	45.2	88	41.9	4	7	90	0.00	29.729 
15:15	45.4	43.6	45.4	88	42.1	4	10	90	0.00	29.725 
15:20	45.5	43.7	45.5	88	42.2	4	10	90	0.00	29.725 
15:25	45.7	45.7	45.7	88	42.4	3	6	112	0.00	29.725 
15:30	45.7	45.7	45.7	87	42.1	3	6	90	0.01	29.733 
15:35	45.5	45.5	45.5	87	41.9	3	6	90	0.00	29.733 
15:40	45.5	45.5	45.5	87	41.9	2	9	90	0.01	29.733 
15:45	45.5	45.5	45.5	87	41.9	2	6	68	0.00	29.749 
15:50	45.4	45.4	45.4	87	41.8	2	5	90	0.01	29.749 
15:55	45.5	45.5	45.5	87	41.9	2	4	68	0.00	29.749 
16:00	45.5	45.5	45.5	88	42.2	2	6	68	0.01	29.756 
16:05	45.4	45.4	45.4	87	41.8	3	6	90	0.00	29.756 
16:10	45.4	45.4	45.4	88	42.1	1	4	90	0.01	29.756 
16:15	45.4	45.4	45.4	88	42.1	1	3	112	0.00	29.766 
16:20	45.5	45.5	45.5	88	42.2	1	4	112	0.00	29.766 
16:25	45.5	45.5	45.5	88	42.2	1	5	112	0.01	29.766 
16:30	45.5	45.5	45.5	88	42.2	1	2	112	0.01	29.764 
16:35	45.5	45.5	45.5	88	42.2	0	5	112	0.00	29.764 
16:40	45.7	45.7	45.7	89	42.6	1	5	90	0.01	29.764 
16:45	45.4	45.4	45.4	88	42.1	0	2	90	0.00	29.761 
16:50	45.4	45.4	45.4	89	42.3	2	6	90	0.01	29.761 
16:55	45.2	45.2	45.2	89	42.2	1	4	112	0.01	29.761 
17:00	45.2	45.2	45.2	89	42.2	1	3	90	0.00	29.752 
17:05	44.9	44.9	44.9	89	41.9	1	7	90	0.00	29.752 
17:10	44.8	44.8	44.8	89	41.8	2	8	112	0.01	29.752 
17:15	44.6	44.6	44.6	90	41.9	1	8	68	0.01	29.743 
17:20	44.5	44.5	44.5	90	41.8	2	9	112	0.00	29.743 
17:25	44.3	44.3	44.3	90	41.6	2	9	112	0.00	29.743 
17:30	44.3	44.3	44.3	90	41.6	2	10	90	0.01	29.732 
17:35	44.5	44.5	44.5	91	42.0	3	11	112	0.00	29.732 
17:40	44.2	44.2	44.2	90	41.5	2	10	112	0.00	29.732 
17:45	44.2	44.2	44.2	90	41.5	2	10	112	0.00	29.718 
17:50	43.9	43.9	43.9	90	41.2	3	12	112	0.01	29.718 
17:55	43.8	41.7	43.8	90	41.1	4	12	90	0.00	29.718 
18:00	43.8	43.8	43.8	90	41.1	3	10	90	0.00	29.708 
18:05	43.8	41.7	43.8	90	41.1	4	18	112	0.00	29.708 
18:10	43.8	40.9	43.8	90	41.1	5	12	112	0.00	29.708 
18:15	43.8	43.8	43.8	90	41.1	3	10	112	0.01	29.705 
18:20	43.8	41.7	43.8	90	41.1	4	12	90	0.00	29.705 
18:25	43.6	43.6	43.6	90	40.9	3	8	90	0.00	29.705 
18:30	43.5	43.5	43.5	89	40.5	3	12	112	0.00	29.703 
18:35	43.5	41.4	43.5	89	40.5	4	11	90	0.00	29.703 
18:40	43.5	41.4	43.5	89	40.5	4	13	112	0.00	29.703 
18:45	43.3	41.1	43.3	89	40.3	4	14	90	0.00	29.704 
18:50	43.3	43.3	43.3	89	40.3	3	12	112	0.00	29.704 
18:55	43.3	43.3	43.3	89	40.3	3	11	90	0.00	29.704 
19:00	42.9	42.9	42.9	88	39.6	3	11	112	0.00	29.702 
19:05	42.8	42.8	42.8	87	39.2	3	12	112	0.00	29.702 
19:10	42.6	42.6	42.6	87	39.0	2	7	90	0.00	29.702 
19:15	42.5	42.5	42.5	86	38.6	2	9	112	0.00	29.706 
19:20	42.3	40.0	42.3	85	38.1	4	13	112	0.00	29.706 
19:25	42.3	42.3	42.3	85	38.1	2	9	90	0.00	29.706 
19:30	42.2	42.2	42.2	85	38.0	2	7	112	0.00	29.731 
19:35	42.2	42.2	42.2	84	37.7	3	6	112	0.00	29.731 
19:40	42.2	42.2	42.2	84	37.7	3	9	68	0.00	29.731 
19:45	42.2	42.2	42.2	84	37.7	1	5	112	0.00	29.736 
19:50	42.2	42.2	42.2	84	37.7	2	9	90	0.00	29.736 
19:55	42.1	42.1	42.1	83	37.3	1	6	90	0.00	29.736 
20:00	42.1	42.1	42.1	83	37.3	2	6	112	0.00	29.750 
20:05	41.8	41.8	41.8	80	36.1	2	6	90	0.00	29.750 
20:10	41.8	41.8	41.8	80	36.1	2	5	90	0.00	29.750 
20:15	41.6	41.6	41.6	78	35.3	2	5	112	0.00	29.762 
20:20	41.6	41.6	41.6	78	35.3	1	5	68	0.00	29.762 
20:25	41.5	41.5	41.5	78	35.2	2	5	90	0.00	29.762 
20:30	41.5	41.5	41.5	78	35.2	1	2	68	0.00	29.768 
20:35	41.5	41.5	41.5	79	35.5	1	4	90	0.01	29.768 
20:40	41.5	41.5	41.5	79	35.5	1	3	90	0.00	29.768 
20:45	41.3	41.3	41.3	81	35.9	0	1	90	0.00	29.773 
20:50	41.3	41.3	41.3	81	35.9	0	2	90	0.00	29.773 
20:55	41.2	41.2	41.2	81	35.8	0	1	90	0.00	29.773 
21:00	41.2	41.2	41.2	81	35.8	0	1	90	0.00	29.775 
21:05	41.2	41.2	41.2	81	35.8	0	0	---	0.00	29.775 
21:10	41.2	41.2	41.2	81	35.8	0	0	---	0.00	29.775 
21:15	41.2	41.2	41.2	81	35.8	0	0	---	0.00	29.777 
21:20	41.2	41.2	41.2	82	36.1	0	0	---	0.00	29.777 
21:25	41.2	41.2	41.2	82	36.1	0	0	---	0.00	29.777 
21:30	41.2	41.2	41.2	82	36.1	0	0	---	0.00	29.777 
21:35	41.2	41.2	41.2	82	36.1	0	0	---	0.00	29.777 
21:40	41.2	41.2	41.2	81	35.8	0	0	---	0.00	29.777 
21:45	41.2	41.2	41.2	81	35.8	0	0	---	0.00	29.773 
21:50	41.2	41.2	41.2	81	35.8	0	0	---	0.00	29.773 
21:55	41.2	41.2	41.2	81	35.8	0	0	---	0.00	29.773 
22:00	41.2	41.2	41.2	81	35.8	0	0	---	0.00	29.774 
22:05	41.2	41.2	41.2	81	35.8	0	0	---	0.00	29.774 
22:10	41.2	41.2	41.2	81	35.8	0	0	---	0.00	29.774 
22:15	41.2	41.2	41.2	81	35.8	0	0	---	0.00	29.771 
22:20	41.1	41.1	41.1	81	35.7	0	0	---	0.00	29.771 
22:25	41.1	41.1	41.1	81	35.7	0	0	---	0.00	29.771 
22:30	41.1	41.1	41.1	81	35.7	0	0	---	0.00	29.773 
22:35	41.1	41.1	41.1	81	35.7	0	0	---	0.00	29.773 
22:40	41.1	41.1	41.1	81	35.7	0	0	---	0.00	29.773 
22:45	41.1	41.1	41.1	81	35.7	0	0	---	0.00	29.771 
22:50	41.1	41.1	41.1	81	35.7	0	0	---	0.00	29.771 
22:55	41.1	41.1	41.1	80	35.4	0	0	---	0.00	29.771 
23:00	41.1	41.1	41.1	80	35.4	0	0	---	0.00	29.774 
23:05	41.1	41.1	41.1	80	35.4	0	0	---	0.00	29.774 
23:10	41.1	41.1	41.1	79	35.1	0	0	---	0.00	29.774 
23:15	41.1	41.1	41.1	79	35.1	0	0	---	0.00	29.777 
23:20	41.1	41.1	41.1	79	35.1	0	0	---	0.00	29.777 
23:25	41.1	41.1	41.1	79	35.1	0	1	90	0.00	29.777 
23:30	41.1	41.1	41.1	78	34.8	0	0	---	0.00	29.783 
23:35	41.1	41.1	41.1	77	34.4	0	1	90	0.00	29.783 
23:40	41.1	41.1	41.1	75	33.8	0	1	90	0.00	29.783 
23:45	41.1	41.1	41.1	74	33.5	0	1	90	0.00	29.785 
23:50	41.1	41.1	41.1	72	32.8	0	2	90	0.00	29.785 
23:55	41.1	41.1	41.1	72	32.8	0	0	---	0.00	29.785 

CoCoRaHS
IN-AL-39
A2 Web Hosting
Creative Commons License
GoDaddy
search engine by freefind advanced

loaded 2018-11-20 08:13:44 • last modified 2010-11-18 10:43:29
Privacy PolicyDisclaimer
• wx.awcolley.com is powered by PmWiki v.2002016 •
• all content (unless otherwise noted) © 2018 A W Colley